Time;durP1;ratioP1;P1;durP2;ratioP2;P2;SDS_P1;SDS_P2;PMS_P1;PMS_P2;Temp;Humidity;BMP_temperature;BMP_pressure;BME280_temperature;BME280_humidity;BME280_pressure;Samples;Min_cycle;Max_cycle;Signal;HPM_P1;HPM_P2
2023/01/24 00:01:43;;;;;;;9.40;4.87;;;6.10;92.40;;;;;;5029195;28;20212;-80
2023/01/24 00:04:11;;;;;;;9.47;4.70;;;6.10;92.30;;;;;;5017697;28;20204;-82
2023/01/24 00:06:41;;;;;;;7.43;4.07;;;6.10;92.20;;;;;;5036781;28;20251;-85
2023/01/24 00:09:19;;;;;;;9.00;4.20;;;6.10;92.30;;;;;;5020730;28;20204;-83
2023/01/24 00:11:48;;;;;;;10.40;4.33;;;6.10;92.20;;;;;;5029305;28;20253;-81
2023/01/24 00:14:19;;;;;;;8.97;4.30;;;6.10;92.20;;;;;;5018404;28;20195;-81
2023/01/24 00:16:50;;;;;;;8.73;4.47;;;6.10;92.30;;;;;;5038773;28;20198;-82
2023/01/24 00:19:18;;;;;;;8.73;4.57;;;6.20;92.30;;;;;;5019818;28;20205;-82
2023/01/24 00:21:47;;;;;;;11.80;4.83;;;6.20;92.30;;;;;;5028989;28;20301;-81
2023/01/24 00:24:16;;;;;;;9.40;4.40;;;6.20;92.30;;;;;;5015273;28;20203;-83
2023/01/24 00:26:46;;;;;;;7.87;4.27;;;6.20;92.20;;;;;;5026355;28;20247;-83
2023/01/24 00:29:17;;;;;;;9.80;5.07;;;6.20;92.20;;;;;;5036633;28;20607;-81
2023/01/24 00:31:46;;;;;;;11.87;4.83;;;6.20;92.20;;;;;;5027941;28;20198;-83
2023/01/24 00:34:16;;;;;;;10.30;5.03;;;6.20;92.10;;;;;;5025192;28;20202;-83
2023/01/24 00:36:45;;;;;;;11.07;5.33;;;6.20;92.10;;;;;;5028063;28;20202;-82
2023/01/24 00:39:13;;;;;;;9.87;4.57;;;6.20;92.10;;;;;;5022838;28;20217;-80
2023/01/24 00:41:46;;;;;;;9.27;5.33;;;6.20;92.00;;;;;;5021167;28;20544;-84
2023/01/24 00:44:17;;;;;;;11.63;5.23;;;6.20;92.00;;;;;;5025221;28;20196;-82
2023/01/24 00:46:46;;;;;;;9.63;5.00;;;6.20;92.00;;;;;;5029484;28;20202;-81
2023/01/24 00:49:14;;;;;;;11.13;5.33;;;6.20;92.00;;;;;;5014831;28;20212;-82
2023/01/24 00:51:49;;;;;;;9.57;4.87;;;6.20;92.00;;;;;;5037957;28;20204;-84
2023/01/24 00:54:17;;;;;;;9.93;4.57;;;6.20;92.00;;;;;;5029635;28;20199;-81
2023/01/24 00:56:47;;;;;;;9.57;5.13;;;6.20;92.00;;;;;;5020672;28;20206;-80
2023/01/24 00:59:16;;;;;;;9.70;5.37;;;6.20;92.00;;;;;;5022050;28;20214;-82
2023/01/24 01:01:44;;;;;;;8.80;5.20;;;6.30;92.00;;;;;;5027185;28;20670;-84
2023/01/24 01:04:13;;;;;;;10.87;5.83;;;6.20;92.00;;;;;;5025849;28;20244;-82
2023/01/24 01:06:41;;;;;;;9.43;4.97;;;6.20;91.90;;;;;;5033446;28;20261;-83
2023/01/24 01:09:10;;;;;;;12.17;5.40;;;6.20;91.90;;;;;;5027053;28;20642;-81
2023/01/24 01:11:41;;;;;;;9.13;5.23;;;6.20;92.00;;;;;;5022775;28;20257;-81
2023/01/24 01:14:11;;;;;;;9.97;4.57;;;6.20;92.00;;;;;;5025523;28;20252;-84
2023/01/24 01:16:40;;;;;;;9.07;4.47;;;6.20;92.00;;;;;;5020725;28;20190;-82
2023/01/24 01:19:10;;;;;;;14.23;5.47;;;6.20;92.00;;;;;;5020308;28;20678;-82
2023/01/24 01:21:50;;;;;;;9.20;5.10;;;6.20;92.00;;;;;;5030809;28;20667;-82
2023/01/24 01:24:21;;;;;;;12.17;6.13;;;6.10;92.00;;;;;;5020938;28;20197;-82
2023/01/24 01:26:50;;;;;;;10.90;5.60;;;6.20;92.00;;;;;;5022776;28;20197;-84
2023/01/24 01:29:20;;;;;;;13.43;5.93;;;6.20;92.00;;;;;;5022217;28;20205;-83
2023/01/24 01:31:48;;;;;;;11.80;5.57;;;6.20;92.00;;;;;;5034574;28;20201;-82
2023/01/24 01:34:18;;;;;;;14.53;6.03;;;6.20;92.10;;;;;;5025743;28;20643;-81
2023/01/24 01:36:47;;;;;;;13.40;6.13;;;6.20;92.00;;;;;;5021573;28;20602;-83
2023/01/24 01:39:15;;;;;;;10.33;5.43;;;6.20;92.00;;;;;;5023147;28;20229;-83
2023/01/24 01:41:46;;;;;;;13.97;6.07;;;6.20;91.90;;;;;;5005844;28;20250;-82
2023/01/24 01:44:43;;;;;;;13.43;5.80;;;6.20;91.80;;;;;;5028621;28;20220;-85
2023/01/24 01:47:26;;;;;;;11.60;6.27;;;6.30;91.90;;;;;;5020827;28;20685;-82
2023/01/24 01:50:06;;;;;;;9.87;5.57;;;6.30;91.90;;;;;;5020240;28;20697;-82
2023/01/24 01:52:45;;;;;;;11.07;6.10;;;6.30;91.70;;;;;;5024467;28;20722;-82
2023/01/24 01:55:17;;;;;;;12.63;5.50;;;6.30;91.80;;;;;;5019512;28;20210;-84
2023/01/24 01:57:48;;;;;;;9.87;4.53;;;6.30;91.70;;;;;;5028303;28;20239;-81
2023/01/24 02:00:23;;;;;;;10.30;5.30;;;6.30;92.00;;;;;;5030915;28;20193;-84
2023/01/24 02:03:37;;;;;;;14.03;6.63;;;6.30;91.70;;;;;;5022480;28;20654;-83
2023/01/24 02:05:52;;;;;;;10.73;5.80;;;6.30;91.70;;;;;;5027306;28;20206;-82
2023/01/24 02:08:23;;;;;;;11.77;5.30;;;6.30;91.70;;;;;;5011285;28;20228;-84
2023/01/24 02:13:38;;;;;;;14.27;6.33;;;6.30;91.60;;;;;;5044010;28;20333;-81
2023/01/24 02:16:09;;;;;;;10.27;5.50;;;6.30;91.60;;;;;;5042708;28;20205;-83
2023/01/24 02:18:44;;;;;;;15.97;6.70;;;6.30;91.80;;;;;;5039275;28;20212;-81
2023/01/24 02:21:15;;;;;;;13.03;6.37;;;6.30;91.40;;;;;;5041952;28;20652;-82
2023/01/24 02:23:54;;;;;;;13.20;5.80;;;6.30;91.50;;;;;;5060784;28;20205;-83
2023/01/24 02:26:26;;;;;;;11.93;5.67;;;6.30;91.40;;;;;;5052180;28;20196;-84
2023/01/24 02:28:57;;;;;;;14.37;6.63;;;6.30;91.40;;;;;;5043186;28;20204;-85
2023/01/24 02:31:26;;;;;;;12.87;6.10;;;6.30;91.40;;;;;;5043317;28;20199;-82
2023/01/24 02:33:55;;;;;;;11.00;5.37;;;6.30;91.40;;;;;;5053101;28;20215;-83
2023/01/24 02:36:27;;;;;;;12.37;5.93;;;6.30;91.40;;;;;;5045513;28;20612;-85
2023/01/24 02:39:01;;;;;;;11.07;5.47;;;6.40;91.40;;;;;;5043309;28;20677;-83
2023/01/24 02:41:35;;;;;;;13.93;6.40;;;6.30;91.20;;;;;;5035365;28;20228;-82
2023/01/24 02:44:10;;;;;;;10.43;5.53;;;6.30;91.20;;;;;;5043386;28;20237;-84
2023/01/24 02:46:39;;;;;;;11.07;5.33;;;6.30;91.20;;;;;;5045479;28;20205;-81
2023/01/24 02:49:08;;;;;;;8.90;5.17;;;6.30;90.90;;;;;;5029603;28;20201;-86
2023/01/24 02:54:23;;;;;;;10.00;5.03;;;6.30;91.00;;;;;;5050577;28;20206;-85
2023/01/24 02:59:39;;;;;;;12.63;5.60;;;6.30;91.00;;;;;;5041646;28;20217;-86
2023/01/24 03:02:08;;;;;;;11.10;5.40;;;6.30;91.00;;;;;;5041381;28;20202;-82
2023/01/24 03:04:36;;;;;;;13.60;6.00;;;6.30;91.00;;;;;;5060609;28;20215;-84
2023/01/24 03:07:05;;;;;;;11.67;6.10;;;6.30;91.00;;;;;;5044560;28;20251;-82
2023/01/24 03:09:38;;;;;;;12.93;6.17;;;6.30;90.80;;;;;;5050017;28;20923;-83
2023/01/24 03:34:31;;;;;;;12.07;5.37;;;6.20;90.70;;;;;;5054533;28;20193;-83
2023/01/24 03:37:03;;;;;;;12.37;5.90;;;6.20;90.70;;;;;;5052391;28;20207;-82
2023/01/24 03:42:22;;;;;;;13.97;5.87;;;6.20;90.80;;;;;;5045585;28;20266;-84
2023/01/24 03:44:52;;;;;;;12.57;5.67;;;6.10;90.80;;;;;;5037624;28;20198;-81
2023/01/24 03:47:21;;;;;;;12.63;5.70;;;6.20;90.80;;;;;;5047499;28;20715;-82
2023/01/24 03:52:35;;;;;;;13.40;6.10;;;6.30;90.60;;;;;;5044680;28;20190;-81
2023/01/24 03:55:04;;;;;;;10.83;4.77;;;6.30;90.60;;;;;;5053432;28;20210;-82
2023/01/24 03:57:35;;;;;;;11.27;4.87;;;6.20;90.20;;;;;;5046266;28;20215;-81
2023/01/24 04:00:10;;;;;;;12.77;5.50;;;6.30;90.20;;;;;;5056341;28;20674;-81
2023/01/24 04:02:47;;;;;;;14.50;6.53;;;6.20;89.90;;;;;;5041402;28;20493;-84
2023/01/24 04:05:17;;;;;;;10.03;4.33;;;6.20;90.10;;;;;;5038884;28;20575;-83
2023/01/24 04:07:46;;;;;;;10.07;4.50;;;6.30;90.20;;;;;;5051895;28;20210;-84
2023/01/24 04:10:15;;;;;;;11.70;4.90;;;6.30;90.00;;;;;;5043820;28;20669;-82
2023/01/24 04:12:44;;;;;;;10.30;5.07;;;6.40;90.00;;;;;;5038408;28;20781;-81
2023/01/24 04:15:18;;;;;;;12.63;6.03;;;6.40;89.90;;;;;;5047894;28;21544;-83
2023/01/24 04:17:47;;;;;;;10.53;4.70;;;6.40;90.00;;;;;;5054384;28;20243;-81
2023/01/24 04:20:16;;;;;;;9.47;4.70;;;6.40;89.10;;;;;;5053521;28;20239;-84
2023/01/24 04:22:45;;;;;;;10.97;4.70;;;6.40;88.60;;;;;;5052133;28;20682;-82
2023/01/24 04:25:13;;;;;;;7.47;3.90;;;6.40;88.60;;;;;;5050693;28;20209;-82
2023/01/24 04:27:44;;;;;;;12.47;5.70;;;6.40;88.20;;;;;;5045409;28;20206;-81
2023/01/24 04:30:16;;;;;;;9.07;4.20;;;6.40;87.50;;;;;;5046325;28;20203;-82
2023/01/24 04:32:48;;;;;;;14.27;4.67;;;6.40;87.50;;;;;;5018312;28;20656;-80
2023/01/24 04:35:19;;;;;;;9.90;4.83;;;6.40;87.40;;;;;;5046141;28;20195;-85
2023/01/24 04:37:48;;;;;;;9.48;4.60;;;6.40;86.70;;;;;;5040186;28;20446;-83
2023/01/24 04:40:23;;;;;;;10.97;5.00;;;6.40;87.40;;;;;;5046184;28;20245;-82
2023/01/24 04:42:51;;;;;;;7.47;3.77;;;6.40;87.40;;;;;;5039667;28;20222;-82
2023/01/24 04:45:21;;;;;;;9.73;4.75;;;6.30;86.90;;;;;;5049881;28;20454;-82
2023/01/24 04:47:50;;;;;;;10.67;4.43;;;6.30;86.20;;;;;;5034541;28;20617;-81
2023/01/24 04:50:19;;;;;;;9.20;4.60;;;6.40;86.60;;;;;;5042908;28;20215;-81
2023/01/24 04:52:47;;;;;;;10.73;4.13;;;6.40;86.60;;;;;;5048826;28;20194;-83
2023/01/24 04:55:16;;;;;;;9.77;4.50;;;6.40;86.90;;;;;;5051748;28;20316;-83
2023/01/24 04:57:45;;;;;;;10.53;4.80;;;6.40;87.00;;;;;;5045873;28;20197;-81
2023/01/24 05:00:14;;;;;;;9.97;4.60;;;6.40;86.90;;;;;;5046669;28;20641;-85
2023/01/24 05:02:44;;;;;;;9.70;4.73;;;6.40;86.50;;;;;;5040449;28;20277;-82
2023/01/24 05:05:13;;;;;;;8.53;3.93;;;6.40;86.80;;;;;;5043716;28;20194;-83
2023/01/24 05:07:41;;;;;;;8.67;4.50;;;6.40;86.70;;;;;;5040046;28;20205;-82
2023/01/24 05:10:11;;;;;;;8.53;3.97;;;6.50;86.60;;;;;;5049398;28;20204;-82
2023/01/24 05:12:43;;;;;;;9.27;4.47;;;6.40;85.70;;;;;;5040423;28;20229;-84
2023/01/24 05:15:12;;;;;;;11.00;4.17;;;6.50;85.90;;;;;;5045197;28;20298;-84
2023/01/24 05:17:48;;;;;;;10.53;4.50;;;6.40;86.10;;;;;;5039114;28;20214;-83
2023/01/24 05:20:17;;;;;;;9.37;4.07;;;6.40;86.10;;;;;;5038116;28;20213;-79
2023/01/24 05:22:48;;;;;;;8.40;3.97;;;6.40;85.00;;;;;;5051063;28;20228;-85
2023/01/24 05:25:17;;;;;;;10.93;4.90;;;6.30;84.70;;;;;;5054671;28;20488;-81
2023/01/24 05:27:46;;;;;;;10.23;4.80;;;6.40;85.60;;;;;;5056661;28;20203;-80
2023/01/24 05:30:14;;;;;;;10.53;4.23;;;6.30;85.30;;;;;;5053459;28;20194;-85
2023/01/24 05:32:43;;;;;;;8.97;4.10;;;6.30;85.30;;;;;;5050773;28;20998;-85
2023/01/24 05:35:15;;;;;;;9.40;4.20;;;6.40;85.50;;;;;;5052195;28;20206;-84
2023/01/24 05:37:44;;;;;;;10.03;4.80;;;6.40;85.80;;;;;;5044073;28;20191;-85
2023/01/24 05:40:13;;;;;;;9.83;4.67;;;6.40;85.10;;;;;;5042249;28;20219;-81
2023/01/24 05:42:42;;;;;;;9.00;4.27;;;6.30;84.70;;;;;;5042056;28;20202;-85
2023/01/24 05:45:12;;;;;;;12.13;4.90;;;6.30;84.70;;;;;;5046556;28;20207;-85
2023/01/24 05:47:40;;;;;;;10.63;4.97;;;6.30;84.90;;;;;;5037235;28;20249;-82
2023/01/24 05:50:10;;;;;;;11.23;4.87;;;6.30;85.00;;;;;;5044094;28;20202;-81
2023/01/24 05:52:40;;;;;;;9.17;4.47;;;6.30;85.50;;;;;;5039036;28;20203;-82
2023/01/24 05:55:09;;;;;;;9.17;4.33;;;6.40;85.10;;;;;;5062385;28;20195;-79
2023/01/24 05:57:38;;;;;;;10.53;5.17;;;6.40;84.90;;;;;;5042265;28;20560;-84
2023/01/24 06:00:08;;;;;;;11.00;4.50;;;6.30;84.20;;;;;;5035497;28;20754;-81
2023/01/24 06:02:37;;;;;;;10.30;4.73;;;6.40;84.70;;;;;;5037304;28;20205;-84
2023/01/24 06:05:09;;;;;;;15.07;5.10;;;6.40;84.90;;;;;;5053995;28;20210;-84
2023/01/24 06:07:39;;;;;;;11.83;4.90;;;6.40;84.90;;;;;;5041727;28;20211;-81
2023/01/24 06:10:13;;;;;;;11.23;4.87;;;6.40;84.80;;;;;;5039307;28;20206;-81
2023/01/24 06:12:42;;;;;;;10.63;4.43;;;6.40;84.10;;;;;;5040698;28;20249;-81
2023/01/24 06:15:11;;;;;;;13.43;5.00;;;6.40;84.10;;;;;;5031820;28;20194;-81
2023/01/24 06:17:39;;;;;;;11.83;4.57;;;6.40;83.90;;;;;;5039768;28;20250;-82
2023/01/24 06:20:12;;;;;;;9.73;4.70;;;6.40;83.50;;;;;;5045278;28;20686;-81
2023/01/24 06:22:46;;;;;;;10.07;4.93;;;6.30;83.60;;;;;;5042820;28;20201;-84
2023/01/24 06:25:21;;;;;;;12.13;4.50;;;6.40;83.70;;;;;;5040479;28;20203;-86
2023/01/24 06:27:51;;;;;;;12.00;5.07;;;6.40;84.10;;;;;;5040329;28;20724;-85
2023/01/24 06:30:20;;;;;;;13.63;5.57;;;6.50;84.40;;;;;;5051335;28;20198;-83
2023/01/24 06:33:07;;;;;;;12.53;4.73;;;6.40;83.60;;;;;;5039738;28;20206;-86
2023/01/24 06:35:47;;;;;;;12.23;5.40;;;6.50;83.80;;;;;;5048634;28;20447;-83
2023/01/24 06:38:21;;;;;;;10.73;4.73;;;6.50;84.50;;;;;;5045750;28;20206;-84
2023/01/24 06:40:53;;;;;;;12.07;4.43;;;6.60;84.70;;;;;;5045716;28;20727;-84
2023/01/24 06:43:23;;;;;;;9.33;4.10;;;6.60;84.10;;;;;;5041532;28;20204;-83
2023/01/24 06:45:53;;;;;;;15.30;6.30;;;6.60;84.10;;;;;;5046330;28;20448;-80
2023/01/24 06:48:22;;;;;;;9.77;4.57;;;6.60;84.40;;;;;;5041480;28;20194;-81
2023/01/24 06:50:50;;;;;;;8.93;4.33;;;6.70;84.40;;;;;;5046790;28;20202;-82
2023/01/24 06:53:23;;;;;;;11.47;4.50;;;6.70;84.20;;;;;;5047193;28;20200;-81
2023/01/24 06:55:52;;;;;;;9.50;4.93;;;6.70;83.90;;;;;;5049378;28;20187;-84
2023/01/24 06:58:21;;;;;;;13.83;4.87;;;6.80;83.60;;;;;;5047532;28;20680;-82
2023/01/24 07:00:53;;;;;;;10.00;4.80;;;6.80;83.50;;;;;;5032465;28;20224;-83
2023/01/24 07:03:22;;;;;;;10.97;4.57;;;6.80;83.40;;;;;;5048089;28;20294;-84
2023/01/24 07:05:50;;;;;;;12.67;5.10;;;6.80;83.20;;;;;;5049945;28;20196;-81
2023/01/24 07:08:21;;;;;;;10.97;4.23;;;6.80;83.50;;;;;;5046330;28;20187;-80
2023/01/24 07:10:49;;;;;;;9.03;4.77;;;6.90;83.50;;;;;;5055431;28;20328;-81
2023/01/24 07:13:18;;;;;;;11.20;4.77;;;6.90;82.50;;;;;;5046625;28;20283;-81
2023/01/24 07:15:46;;;;;;;10.17;4.47;;;6.90;82.60;;;;;;5049138;28;20191;-80
2023/01/24 07:18:19;;;;;;;8.70;4.40;;;6.90;82.50;;;;;;5049781;28;20217;-85
2023/01/24 07:20:54;;;;;;;8.63;4.30;;;6.90;82.90;;;;;;5036695;28;20759;-82
2023/01/24 07:23:28;;;;;;;12.07;5.57;;;6.90;83.10;;;;;;5039516;28;20577;-82
2023/01/24 07:25:57;;;;;;;10.57;4.80;;;7.00;83.20;;;;;;5045723;28;20203;-83
2023/01/24 07:28:28;;;;;;;12.40;4.17;;;7.00;82.80;;;;;;5043946;28;20204;-84
2023/01/24 07:30:57;;;;;;;10.57;4.57;;;7.10;83.10;;;;;;5041277;28;20711;-80
2023/01/24 07:33:25;;;;;;;10.77;4.73;;;7.10;83.00;;;;;;5036712;28;20195;-81
2023/01/24 07:35:54;;;;;;;9.97;5.13;;;7.20;83.10;;;;;;5036081;28;20206;-87
2023/01/24 07:38:25;;;;;;;12.13;5.30;;;7.30;83.00;;;;;;5041303;28;20211;-85
2023/01/24 07:40:53;;;;;;;10.33;4.23;;;7.30;83.00;;;;;;5049955;28;20221;-84
2023/01/24 07:43:22;;;;;;;9.33;4.67;;;7.40;83.00;;;;;;5046040;28;20655;-80
2023/01/24 07:45:50;;;;;;;11.23;4.57;;;7.40;82.00;;;;;;5033117;28;20203;-79
2023/01/24 07:48:20;;;;;;;10.13;4.40;;;7.50;82.00;;;;;;5036595;28;20200;-81
2023/01/24 07:50:48;;;;;;;10.83;4.27;;;7.50;81.80;;;;;;5047210;28;20656;-80
2023/01/24 07:53:16;;;;;;;9.83;4.10;;;7.60;81.80;;;;;;5054185;28;20199;-80
2023/01/24 07:55:46;;;;;;;8.20;3.70;;;7.60;81.60;;;;;;5056922;28;20227;-78
2023/01/24 07:58:30;;;;;;;9.00;3.50;;;7.60;81.40;;;;;;5039603;28;20642;-78
2023/01/24 08:00:58;;;;;;;8.67;3.63;;;7.60;80.30;;;;;;5060635;28;20885;-78
2023/01/24 08:03:27;;;;;;;8.63;3.27;;;7.60;79.90;;;;;;5055258;28;20206;-78
2023/01/24 08:05:55;;;;;;;9.83;3.90;;;7.70;80.10;;;;;;5041287;28;20285;-79
2023/01/24 08:08:24;;;;;;;8.90;4.27;;;7.70;79.00;;;;;;5044513;28;20203;-80
2023/01/24 08:10:54;;;;;;;11.47;4.63;;;7.70;79.40;;;;;;5048478;28;20689;-84
2023/01/24 08:13:23;;;;;;;10.57;4.10;;;7.80;79.80;;;;;;5042613;28;20219;-81
2023/01/24 08:15:51;;;;;;;11.20;4.90;;;7.80;79.90;;;;;;5043799;28;20211;-82
2023/01/24 08:18:20;;;;;;;10.05;4.53;;;7.90;80.10;;;;;;5041404;28;20444;-78
2023/01/24 08:20:49;;;;;;;9.40;4.80;;;7.90;79.80;;;;;;5050331;28;20206;-76
2023/01/24 08:23:17;;;;;;;9.60;4.27;;;7.90;79.30;;;;;;5047271;28;20195;-80
2023/01/24 08:25:46;;;;;;;9.77;4.50;;;7.80;78.40;;;;;;5051627;28;20209;-83
2023/01/24 08:28:16;;;;;;;15.07;4.70;;;7.80;78.70;;;;;;5043422;28;20681;-84
2023/01/24 08:30:45;;;;;;;9.70;4.53;;;7.80;78.30;;;;;;5042691;28;20591;-83
2023/01/24 08:33:17;;;;;;;10.00;4.20;;;7.70;78.80;;;;;;5046510;28;20205;-85
2023/01/24 08:35:46;;;;;;;12.00;4.13;;;7.80;79.30;;;;;;5048037;28;20212;-84
2023/01/24 08:38:16;;;;;;;9.23;4.03;;;7.80;79.20;;;;;;5046295;28;20202;-84
2023/01/24 08:40:44;;;;;;;10.67;3.93;;;7.70;79.30;;;;;;5049637;28;20565;-82
2023/01/24 08:43:19;;;;;;;8.10;3.00;;;7.70;78.90;;;;;;5058795;28;20211;-81
2023/01/24 08:45:48;;;;;;;9.60;4.30;;;7.70;78.40;;;;;;5052858;28;20218;-80
2023/01/24 08:48:16;;;;;;;9.47;4.70;;;7.60;78.30;;;;;;5037165;28;20200;-83
2023/01/24 08:50:45;;;;;;;9.87;4.80;;;7.60;78.30;;;;;;5048016;28;20195;-85
2023/01/24 08:53:14;;;;;;;25.83;9.50;;;7.60;78.60;;;;;;5049918;28;20191;-84
2023/01/24 08:55:43;;;;;;;9.63;3.97;;;7.50;77.80;;;;;;5061321;28;20199;-82
2023/01/24 08:58:22;;;;;;;11.30;5.43;;;7.50;78.40;;;;;;5035336;28;20202;-86
2023/01/24 09:00:51;;;;;;;9.00;4.30;;;7.50;78.30;;;;;;5008302;28;20203;-82
2023/01/24 09:03:20;;;;;;;12.18;5.40;;;7.50;78.80;;;;;;5042220;28;20445;-85
2023/01/24 09:05:49;;;;;;;9.63;3.93;;;7.50;79.30;;;;;;5048043;28;20228;-83
2023/01/24 09:08:18;;;;;;;8.57;3.60;;;7.50;78.70;;;;;;5044163;28;20692;-82
2023/01/24 09:10:46;;;;;;;7.33;3.30;;;7.50;78.70;;;;;;5051673;28;20199;-82
2023/01/24 09:13:15;;;;;;;5.83;3.07;;;7.50;78.70;;;;;;5040661;28;20674;-83
2023/01/24 09:15:45;;;;;;;6.87;2.80;;;7.50;78.60;;;;;;5044129;28;20203;-83
2023/01/24 09:18:14;;;;;;;4.80;2.43;;;7.50;77.70;;;;;;5041539;28;20213;-83
2023/01/24 09:20:42;;;;;;;4.93;2.10;;;7.50;78.20;;;;;;5039472;28;20241;-81
2023/01/24 09:23:14;;;;;;;6.60;3.50;;;7.50;77.60;;;;;;5050415;28;20621;-83
2023/01/24 09:25:49;;;;;;;9.87;2.77;;;7.50;78.00;;;;;;5051247;28;20215;-84
2023/01/24 09:28:20;;;;;;;6.60;2.87;;;7.40;77.80;;;;;;5036845;28;20214;-82
2023/01/24 09:30:50;;;;;;;7.37;3.03;;;7.40;77.20;;;;;;5053964;28;20199;-81
2023/01/24 09:33:20;;;;;;;5.67;2.80;;;7.30;77.50;;;;;;5041994;28;20254;-79
2023/01/24 09:35:59;;;;;;;6.40;2.70;;;7.30;77.80;;;;;;5040280;28;20352;-82
2023/01/24 09:38:29;;;;;;;4.77;2.13;;;7.30;78.10;;;;;;5030392;28;20234;-86
2023/01/24 09:41:07;;;;;;;8.77;3.77;;;7.30;78.60;;;;;;5041872;28;20199;-82
2023/01/24 09:43:44;;;;;;;20.33;8.20;;;7.30;78.10;;;;;;5038933;28;20222;-81
2023/01/24 09:46:34;;;;;;;8.70;3.27;;;7.30;78.30;;;;;;5042653;28;20210;-84
2023/01/24 09:49:13;;;;;;;13.27;6.35;;;7.30;78.40;;;;;;5041104;28;20943;-83
2023/01/24 09:51:46;;;;;;;32.93;9.87;;;7.30;78.70;;;;;;5042347;28;20663;-83
2023/01/24 09:54:22;;;;;;;10.80;4.00;;;7.40;78.90;;;;;;5046384;28;20560;-78
2023/01/24 09:56:52;;;;;;;7.10;3.07;;;7.40;79.00;;;;;;5047839;28;20194;-79
2023/01/24 09:59:22;;;;;;;7.43;2.87;;;7.30;79.10;;;;;;5050362;28;20209;-80
2023/01/24 10:01:53;;;;;;;6.57;2.60;;;7.40;79.10;;;;;;5045143;28;20667;-77
2023/01/24 10:04:26;;;;;;;7.33;2.90;;;7.30;79.50;;;;;;5051738;28;20202;-81
2023/01/24 10:07:13;;;;;;;5.37;2.93;;;7.40;79.60;;;;;;5038175;28;20599;-82
2023/01/24 10:09:55;;;;;;;6.13;2.90;;;7.40;80.00;;;;;;5045766;28;20195;-82
2023/01/24 10:12:38;;;;;;;5.57;3.07;;;7.40;79.80;;;;;;5055615;28;20703;-78
2023/01/24 10:15:21;;;;;;;8.02;3.55;;;7.50;80.00;;;;;;5035011;28;20864;-83
2023/01/24 10:18:07;;;;;;;6.60;3.10;;;7.50;80.20;;;;;;5039997;28;20223;-79
2023/01/24 10:21:15;;;;;;;7.40;3.20;;;7.50;79.90;;;;;;5038405;28;20192;-79
2023/01/24 10:23:48;;;;;;;7.90;3.60;;;7.50;79.20;;;;;;5044858;28;20261;-78
2023/01/24 10:26:20;;;;;;;6.47;3.23;;;7.60;79.60;;;;;;5047598;28;20202;-80
2023/01/24 10:28:52;;;;;;;7.43;3.40;;;7.60;79.30;;;;;;5033556;28;20340;-78
2023/01/24 10:31:25;;;;;;;8.77;3.95;;;7.70;79.40;;;;;;5043266;28;20921;-80
2023/01/24 10:33:59;;;;;;;9.10;3.33;;;7.70;79.40;;;;;;5051415;28;20201;-77
2023/01/24 10:36:37;;;;;;;4.87;2.20;;;7.70;78.50;;;;;;5059488;28;20193;-79
2023/01/24 10:39:06;;;;;;;6.50;3.00;;;7.70;77.20;;;;;;5048060;28;20221;-77
2023/01/24 10:41:34;;;;;;;5.13;2.23;;;7.70;77.30;;;;;;5042878;28;20202;-77
2023/01/24 10:44:09;;;;;;;5.47;2.50;;;7.70;77.10;;;;;;5039216;28;20225;-78
2023/01/24 10:46:50;;;;;;;4.80;2.00;;;7.70;76.80;;;;;;5046236;28;20198;-78
2023/01/24 10:49:25;;;;;;;6.23;2.30;;;7.70;76.70;;;;;;5044289;28;20198;-79
2023/01/24 10:52:13;;;;;;;4.23;2.37;;;7.70;76.80;;;;;;5046191;28;20190;-81
2023/01/24 10:54:49;;;;;;;5.67;2.87;;;7.70;76.90;;;;;;5039479;28;20257;-82
2023/01/24 10:57:39;;;;;;;5.13;2.63;;;7.70;77.40;;;;;;5039076;28;20196;-78
2023/01/24 11:00:25;;;;;;;4.70;2.50;;;7.70;76.90;;;;;;5045562;28;20244;-79
2023/01/24 11:02:56;;;;;;;5.00;2.40;;;7.70;76.10;;;;;;5051511;28;20210;-79
2023/01/24 11:05:36;;;;;;;5.97;2.30;;;7.70;75.40;;;;;;5043283;28;20200;-79
2023/01/24 11:08:05;;;;;;;3.93;1.97;;;7.60;75.60;;;;;;5037402;28;20213;-78
2023/01/24 11:10:37;;;;;;;4.57;2.67;;;7.70;75.50;;;;;;5046275;28;20215;-78
2023/01/24 11:13:33;;;;;;;7.93;3.20;;;7.70;75.90;;;;;;5038291;28;20227;-80
2023/01/24 11:16:04;;;;;;;4.70;2.43;;;7.70;76.20;;;;;;5040398;28;20666;-78
2023/01/24 11:18:34;;;;;;;6.43;3.07;;;7.70;75.60;;;;;;5049589;28;20202;-78
2023/01/24 11:21:11;;;;;;;6.53;2.97;;;7.70;76.20;;;;;;5045180;28;20807;-79
2023/01/24 11:23:41;;;;;;;4.63;2.27;;;7.70;76.50;;;;;;5040647;28;20218;-78
2023/01/24 11:26:23;;;;;;;5.40;3.20;;;7.70;76.10;;;;;;5042920;28;20743;-78
2023/01/24 11:29:00;;;;;;;6.13;2.33;;;7.80;76.40;;;;;;5048178;28;20721;-78
2023/01/24 11:31:33;;;;;;;5.68;2.80;;;7.70;75.90;;;;;;5054744;28;20443;-79
2023/01/24 11:34:36;;;;;;;4.27;2.17;;;7.80;76.30;;;;;;5058205;28;20190;-79
2023/01/24 11:37:21;;;;;;;6.63;2.80;;;7.80;76.30;;;;;;5048456;28;20257;-79
2023/01/24 11:39:58;;;;;;;4.63;2.43;;;7.80;76.10;;;;;;5054725;28;20195;-78
2023/01/24 11:42:37;;;;;;;4.93;2.50;;;7.80;75.50;;;;;;5047781;28;20446;-79
2023/01/24 11:45:27;;;;;;;6.07;2.27;;;7.80;75.80;;;;;;5052067;28;20192;-78
2023/01/24 11:48:09;;;;;;;4.90;2.27;;;7.70;76.00;;;;;;5046335;28;20207;-77
2023/01/24 11:50:51;;;;;;;6.67;2.87;;;7.80;75.70;;;;;;5055339;28;20207;-78
2023/01/24 11:53:45;;;;;;;8.63;3.73;;;7.80;75.30;;;;;;5049527;28;20282;-77
2023/01/24 11:56:27;;;;;;;5.93;2.93;;;7.70;75.40;;;;;;5053905;28;20190;-78
2023/01/24 11:59:09;;;;;;;6.50;2.97;;;7.70;75.50;;;;;;5048701;28;20228;-78
2023/01/24 12:01:50;;;;;;;5.43;2.70;;;7.80;75.80;;;;;;5051268;28;20353;-79
2023/01/24 12:04:46;;;;;;;5.13;2.40;;;7.70;75.80;;;;;;5042659;28;20235;-84
2023/01/24 12:07:20;;;;;;;6.95;2.78;;;7.80;75.90;;;;;;5039197;28;22143;-79
2023/01/24 12:09:56;;;;;;;5.30;2.60;;;7.80;75.80;;;;;;5039846;28;20187;-79
2023/01/24 12:12:32;;;;;;;4.30;2.47;;;7.80;75.50;;;;;;5036793;28;20231;-80
2023/01/24 12:15:17;;;;;;;6.30;2.70;;;7.80;75.10;;;;;;5050516;28;20199;-78
2023/01/24 12:18:04;;;;;;;5.73;2.47;;;7.80;75.20;;;;;;5035763;28;20250;-80
2023/01/24 12:21:00;;;;;;;5.27;2.40;;;7.70;74.30;;;;;;5045953;28;20287;-78
2023/01/24 12:23:40;;;;;;;5.83;2.43;;;7.80;74.80;;;;;;5039217;28;20219;-77
2023/01/24 12:26:16;;;;;;;4.73;2.37;;;7.80;74.90;;;;;;5049160;28;20248;-79
2023/01/24 12:28:52;;;;;;;5.43;2.20;;;7.80;74.70;;;;;;5048019;28;20204;-79
2023/01/24 12:31:28;;;;;;;5.63;2.20;;;7.80;74.60;;;;;;5041167;28;20251;-79
2023/01/24 12:34:04;;;;;;;4.53;2.23;;;7.80;74.00;;;;;;5049506;28;20187;-78
2023/01/24 12:36:40;;;;;;;5.40;2.20;;;7.80;74.30;;;;;;5044053;28;20186;-80
2023/01/24 12:39:21;;;;;;;3.37;1.93;;;7.80;74.30;;;;;;5043619;28;20187;-81
2023/01/24 12:41:58;;;;;;;5.60;2.63;;;7.80;74.30;;;;;;5045869;28;20195;-79
2023/01/24 12:44:31;;;;;;;5.60;2.63;;;7.80;74.40;;;;;;5051035;28;20203;-79
2023/01/24 12:47:15;;;;;;;6.37;2.77;;;7.80;74.40;;;;;;5054576;28;20247;-78
2023/01/24 12:49:54;;;;;;;4.87;2.50;;;7.80;75.20;;;;;;5045658;28;20308;-78
2023/01/24 12:52:26;;;;;;;5.47;2.37;;;7.80;75.20;;;;;;5042121;28;20195;-79
2023/01/24 12:55:01;;;;;;;5.40;2.40;;;7.80;75.20;;;;;;5043186;28;20662;-80
2023/01/24 12:57:38;;;;;;;5.07;2.40;;;7.70;74.90;;;;;;5042010;28;22271;-80
2023/01/24 13:00:17;;;;;;;6.70;2.63;;;7.70;74.90;;;;;;5040026;28;20199;-79
2023/01/24 13:03:13;;;;;;;7.83;3.90;;;7.70;75.30;;;;;;5035698;28;20849;-79
2023/01/24 13:05:58;;;;;;;5.40;2.80;;;7.80;76.30;;;;;;5045750;28;20195;-79
2023/01/24 13:08:39;;;;;;;4.23;2.67;;;7.80;76.80;;;;;;5045930;28;20233;-79
2023/01/24 13:11:19;;;;;;;5.67;2.50;;;7.80;76.20;;;;;;5054941;28;20191;-79
2023/01/24 13:13:58;;;;;;;4.90;2.53;;;7.80;76.00;;;;;;5043648;28;20223;-79
2023/01/24 13:16:58;;;;;;;6.57;2.87;;;7.70;75.80;;;;;;5045364;28;20366;-80
2023/01/24 13:19:40;;;;;;;7.57;3.80;;;7.70;76.20;;;;;;5046541;28;20203;-79
2023/01/24 13:22:27;;;;;;;7.63;3.53;;;7.80;76.70;;;;;;5051705;28;20257;-80
2023/01/24 13:25:06;;;;;;;7.25;3.25;;;7.80;77.00;;;;;;5046764;28;20443;-79
2023/01/24 13:27:42;;;;;;;6.47;2.70;;;7.90;77.40;;;;;;5043493;28;20204;-79
2023/01/24 13:30:22;;;;;;;10.20;3.40;;;7.80;77.20;;;;;;5044413;28;20194;-80
2023/01/24 13:32:53;;;;;;;6.23;3.23;;;7.80;77.10;;;;;;5043074;28;20191;-79
2023/01/24 13:35:23;;;;;;;7.40;3.50;;;7.80;77.30;;;;;;5049307;28;20199;-79
2023/01/24 13:37:53;;;;;;;7.83;4.03;;;7.90;77.60;;;;;;5047317;28;20433;-78
2023/01/24 13:40:30;;;;;;;7.13;3.20;;;7.80;78.00;;;;;;5055143;28;20803;-78
2023/01/24 13:42:59;;;;;;;5.93;3.17;;;7.80;78.10;;;;;;5057669;28;20710;-80
2023/01/24 13:45:50;;;;;;;9.30;3.47;;;7.80;78.10;;;;;;5055681;28;20222;-78
2023/01/24 13:48:45;;;;;;;7.00;3.70;;;7.80;78.30;;;;;;5046016;28;20231;-78
2023/01/24 13:51:44;;;;;;;5.97;2.93;;;7.80;78.30;;;;;;5054356;28;20194;-79
2023/01/24 13:54:37;;;;;;;6.47;3.23;;;7.70;77.50;;;;;;5050100;28;20280;-79
2023/01/24 13:57:27;;;;;;;7.90;3.43;;;7.70;77.60;;;;;;5061768;28;20194;-79
2023/01/24 14:00:23;;;;;;;9.87;4.30;;;7.60;77.20;;;;;;5042058;28;20313;-78
2023/01/24 14:03:20;;;;;;;7.60;2.67;;;7.60;77.40;;;;;;5049253;28;20238;-79